Etusivu
METAR-TAF:

METAR-TAF

Lentoasemat :

Kingston, Jamaika

Leveyspiiri: 17-56N, Pituuspiiri: 076-47W, korkeus merenpinnasta: 3 m

Tämänhetkinen sää

Tämä raportti tehtiin 53 minuuttia sitten, kello 11.00 UTC
Tuuli 14 kn idästä/kaakosta
Lämpötila 29°C
Kosteus 66%
Ilmanpaine 1012 hPa
Näkyvyys 10 km tai enemmän
Muutamia pilviä 2200 ft:n korkeudessa

METAR: MKJP 221100Z 11014KT 9999 FEW022 29/22 Q1012

Aika: 06:53 (11:53 UTC)

Sääennuste

Tämä raportti tehtiin 38 minuuttia sitten, kello 11.15 UTC
Ennuste voimassa 22. päivästä klo 12 UTC - 23. päivään klo 12 UTC
Tuuli 22 kn kaakosta
Näkyvyys 10 km tai enemmän
Muutamia pilviä 2400 ft:n korkeudessa
Tulossa
23. päivästä klo 03 UTC - 23. päivään klo 05 UTC
Tuuli 10 kn idästä/kaakosta

TAF: MKJP 221115Z 2212/2312 13022KT 9999 FEW024 BECMG 2303/2305 11010KT

Säähavainnot ja -ennusteet yli 4000 lentoasemalta (METAR- ja TAF-raportit).

Käytössä olevat sääasemat on merkitty karttaan keltaisilla ja punaisilla pisteillä.

Aseta hiiri pisteen päälle nähdäksesi sääaseman nimen.

Klikkaa sitten nähdäksesi säähavainnot ja -ennusteet.

Kartan vaihtaminen: klikkaa mustalla rastilla varustettuja vihreitä pisteitä, niin voit zoomata sisään; viivalla varustettua vihreää pistettä, niin voit zoomata ulos tai vihreitä nuolia, niin pääset viereisille kartoille.


METAR-TAF: